PWSweather.com
Personal Weather Stations
Station Observations
KCOBLACK1
Chalet Park, Black Hawk, CO 80422

Chalet ParkBlack Hawk, CO 80422

Lat: 39.8294, Lon: -105.48

Elevation: 9370

Station Type: Vantage Pro2

http://www.oscaranddeb.com/weather

Latest ConditionsUpdated 7:00:00 PM MST Sunday, Feb 18, 2018
Currently Today's Max Today's Min Today's Average
Temperature 36.6°F2.6°C 44.9°F7.2°C 34.2°F1.2°C 39.3°F4.1°C
Dew Point 6.6°F-14.1°C 12.2°F-11.0°C 2.7°F-16.3°C 6.7°F-14.1°C
Winds 1.7 mph WNW2.7 kmh WNW 27.9 mph SW44.9 kmh SW - 16.8 mph 27.0 kmh
Wind Gusts 9.0 mph14.5 kmh 51.0 mph82.1 kmh - -
Humidity 28% 34% 20% 25%
Pressure 29.32 in992.9 mb 29.77 in1008.1 mb 29.30 in992.2 mb -
Hour Temp Dew Point Humidity Winds Wind Gusts Pressure Precip Precip Rate Daily Precip Total
07:00 PM 36.6°F2.6°C 6.6°F-14.1°C 28% 1.7 mph WNW2.7 kmh WNW 9.0 mph14.5 kmh 29.32 in992.9 mb 0.00 in0.0 mm 0.00 in0.0 mm 0.00 in0.0 mm
06:55 PM 36.9°F2.7°C 6.9°F-13.9°C 28% 2.5 mph WNW4.0 kmh WNW 9.0 mph14.5 kmh 29.32 in992.9 mb 0.00 in0.0 mm 0.00 in0.0 mm 0.00 in0.0 mm
06:50 PM 37.0°F2.8°C 7.0°F-13.9°C 28% 2.5 mph SW4.0 kmh SW 12.0 mph19.3 kmh 29.33 in993.2 mb 0.00 in0.0 mm 0.00 in0.0 mm 0.00 in0.0 mm
06:45 PM 37.3°F2.9°C 7.2°F-13.8°C 28% 4.2 mph SW6.8 kmh SW 12.0 mph19.3 kmh 29.32 in992.9 mb 0.00 in0.0 mm 0.00 in0.0 mm 0.00 in0.0 mm
06:40 PM 37.5°F3.1°C 6.6°F-14.1°C 27% 3.8 mph SW6.1 kmh SW 11.0 mph17.7 kmh 29.32 in992.9 mb 0.00 in0.0 mm 0.00 in0.0 mm 0.00 in0.0 mm
06:35 PM 37.7°F3.2°C 6.8°F-14.0°C 27% 4.6 mph SSW7.4 kmh SSW 16.0 mph25.7 kmh 29.32 in992.9 mb 0.00 in0.0 mm 0.00 in0.0 mm 0.00 in0.0 mm
06:30 PM 37.8°F3.2°C 6.9°F-13.9°C 27% 7.6 mph SW12.2 kmh SW 16.0 mph25.7 kmh 29.32 in992.9 mb 0.00 in0.0 mm 0.00 in0.0 mm 0.00 in0.0 mm
06:25 PM 37.7°F3.2°C 6.8°F-14.0°C 27% 6.6 mph SW10.6 kmh SW 14.0 mph22.5 kmh 29.32 in992.9 mb 0.00 in0.0 mm 0.00 in0.0 mm 0.00 in0.0 mm
06:20 PM 37.9°F3.3°C 6.9°F-13.9°C 27% 5.8 mph SW9.3 kmh SW 16.0 mph25.7 kmh 29.32 in992.9 mb 0.00 in0.0 mm 0.00 in0.0 mm 0.00 in0.0 mm
06:15 PM 38.0°F3.3°C 7.0°F-13.9°C 27% 7.9 mph SW12.7 kmh SW 19.0 mph30.6 kmh 29.32 in992.9 mb 0.00 in0.0 mm 0.00 in0.0 mm 0.00 in0.0 mm
06:10 PM 38.0°F3.3°C 7.0°F-13.9°C 27% 8.5 mph SW13.7 kmh SW 19.0 mph30.6 kmh 29.32 in992.9 mb 0.00 in0.0 mm 0.00 in0.0 mm 0.00 in0.0 mm
06:05 PM 38.1°F3.4°C 7.1°F-13.8°C 27% 5.1 mph WSW8.2 kmh WSW 11.0 mph17.7 kmh 29.32 in992.9 mb 0.00 in0.0 mm 0.00 in0.0 mm 0.00 in0.0 mm
06:00 PM 38.4°F3.6°C 7.4°F-13.7°C 27% 5.2 mph SW8.4 kmh SW 19.0 mph30.6 kmh 29.32 in992.9 mb 0.00 in0.0 mm 0.00 in0.0 mm 0.00 in0.0 mm
05:55 PM 38.7°F3.7°C 7.6°F-13.6°C 27% 8.1 mph SW13.0 kmh SW 19.0 mph30.6 kmh 29.32 in992.9 mb 0.00 in0.0 mm 0.00 in0.0 mm 0.00 in0.0 mm
05:50 PM 38.7°F3.7°C 7.6°F-13.6°C 27% 7.0 mph SW11.3 kmh SW 17.0 mph27.4 kmh 29.32 in992.9 mb 0.00 in0.0 mm 0.00 in0.0 mm 0.00 in0.0 mm
05:45 PM 39.1°F3.9°C 8.0°F-13.3°C 27% 8.4 mph SW13.5 kmh SW 23.0 mph37.0 kmh 29.31 in992.6 mb 0.00 in0.0 mm 0.00 in0.0 mm 0.00 in0.0 mm
05:40 PM 39.4°F4.1°C 7.4°F-13.7°C 26% 12.6 mph SW20.3 kmh SW 23.0 mph37.0 kmh 29.31 in992.6 mb 0.00 in0.0 mm 0.00 in0.0 mm 0.00 in0.0 mm
05:35 PM 39.7°F4.3°C 7.7°F-13.5°C 26% 10.8 mph SW17.4 kmh SW 23.0 mph37.0 kmh 29.31 in992.6 mb 0.00 in0.0 mm 0.00 in0.0 mm 0.00 in0.0 mm
05:30 PM 40.3°F4.6°C 8.2°F-13.2°C 26% 11.0 mph WSW17.7 kmh WSW 19.0 mph30.6 kmh 29.31 in992.6 mb 0.00 in0.0 mm 0.00 in0.0 mm 0.00 in0.0 mm
05:25 PM 40.8°F4.9°C 7.7°F-13.5°C 25% 10.2 mph SW16.4 kmh SW 20.0 mph32.2 kmh 29.31 in992.6 mb 0.00 in0.0 mm 0.00 in0.0 mm 0.00 in0.0 mm
05:20 PM 41.2°F5.1°C 8.1°F-13.3°C 25% 11.9 mph SSW19.2 kmh SSW 20.0 mph32.2 kmh 29.31 in992.6 mb 0.00 in0.0 mm 0.00 in0.0 mm 0.00 in0.0 mm
05:15 PM 42.0°F5.6°C 7.9°F-13.4°C 24% 8.2 mph SW13.2 kmh SW 16.0 mph25.7 kmh 29.31 in992.6 mb 0.00 in0.0 mm 0.00 in0.0 mm 0.00 in0.0 mm
05:10 PM 42.3°F5.7°C 8.1°F-13.3°C 24% 6.9 mph WSW11.1 kmh WSW 20.0 mph32.2 kmh 29.31 in992.6 mb 0.00 in0.0 mm 0.00 in0.0 mm 0.00 in0.0 mm
05:05 PM 42.4°F5.8°C 8.2°F-13.2°C 24% 8.5 mph SW13.7 kmh SW 24.0 mph38.6 kmh 29.31 in992.6 mb 0.00 in0.0 mm 0.00 in0.0 mm 0.00 in0.0 mm
05:00 PM 42.3°F5.7°C 8.1°F-13.3°C 24% 11.4 mph SW18.3 kmh SW 25.0 mph40.2 kmh 29.31 in992.6 mb 0.00 in0.0 mm 0.00 in0.0 mm 0.00 in0.0 mm
04:55 PM 42.6°F5.9°C 7.4°F-13.7°C 23% 13.2 mph SW21.2 kmh SW 26.0 mph41.8 kmh 29.31 in992.6 mb 0.00 in0.0 mm 0.00 in0.0 mm 0.00 in0.0 mm
04:50 PM 42.5°F5.8°C 7.3°F-13.7°C 23% 14.6 mph SW23.5 kmh SW 30.0 mph48.3 kmh 29.31 in992.6 mb 0.00 in0.0 mm 0.00 in0.0 mm 0.00 in0.0 mm
04:45 PM 42.7°F5.9°C 7.5°F-13.6°C 23% 16.9 mph SW27.2 kmh SW 30.0 mph48.3 kmh 29.31 in992.6 mb 0.00 in0.0 mm 0.00 in0.0 mm 0.00 in0.0 mm
04:40 PM 42.5°F5.8°C 7.3°F-13.7°C 23% 12.8 mph WSW20.6 kmh WSW 26.0 mph41.8 kmh 29.31 in992.6 mb 0.00 in0.0 mm 0.00 in0.0 mm 0.00 in0.0 mm
04:35 PM 42.5°F5.8°C 7.3°F-13.7°C 23% 19.5 mph SW31.4 kmh SW 35.0 mph56.3 kmh 29.31 in992.6 mb 0.00 in0.0 mm 0.00 in0.0 mm 0.00 in0.0 mm
04:30 PM 42.8°F6.0°C 7.6°F-13.6°C 23% 17.9 mph SW28.8 kmh SW 35.0 mph56.3 kmh 29.30 in992.2 mb 0.00 in0.0 mm 0.00 in0.0 mm 0.00 in0.0 mm
04:25 PM 42.9°F6.1°C 7.7°F-13.5°C 23% 19.4 mph SW31.2 kmh SW 35.0 mph56.3 kmh 29.31 in992.6 mb 0.00 in0.0 mm 0.00 in0.0 mm 0.00 in0.0 mm
04:20 PM 42.9°F6.1°C 7.7°F-13.5°C 23% 19.0 mph SSW30.6 kmh SSW 36.0 mph57.9 kmh 29.31 in992.6 mb 0.00 in0.0 mm 0.00 in0.0 mm 0.00 in0.0 mm
04:15 PM 42.9°F6.1°C 7.7°F-13.5°C 23% 19.7 mph SW31.7 kmh SW 43.0 mph69.2 kmh 29.31 in992.6 mb 0.00 in0.0 mm 0.00 in0.0 mm 0.00 in0.0 mm
04:10 PM 43.1°F6.2°C 7.9°F-13.4°C 23% 20.1 mph SW32.3 kmh SW 43.0 mph69.2 kmh 29.31 in992.6 mb 0.00 in0.0 mm 0.00 in0.0 mm 0.00 in0.0 mm
04:05 PM 42.9°F6.1°C 7.7°F-13.5°C 23% 18.6 mph SW29.9 kmh SW 43.0 mph69.2 kmh 29.31 in992.6 mb 0.00 in0.0 mm 0.00 in0.0 mm 0.00 in0.0 mm
04:00 PM 42.7°F5.9°C 7.5°F-13.6°C 23% 24.0 mph SW38.6 kmh SW 43.0 mph69.2 kmh 29.31 in992.6 mb 0.00 in0.0 mm 0.00 in0.0 mm 0.00 in0.0 mm
03:55 PM 43.6°F6.4°C 8.3°F-13.2°C 23% 18.5 mph SSW29.8 kmh SSW 37.0 mph59.5 kmh 29.31 in992.6 mb 0.00 in0.0 mm 0.00 in0.0 mm 0.00 in0.0 mm
03:50 PM 43.6°F6.4°C 8.3°F-13.2°C 23% 12.7 mph SW20.4 kmh SW 36.0 mph57.9 kmh 29.32 in992.9 mb 0.00 in0.0 mm 0.00 in0.0 mm 0.00 in0.0 mm
03:45 PM 43.2°F6.2°C 7.9°F-13.4°C 23% 17.2 mph SW27.7 kmh SW 36.0 mph57.9 kmh 29.31 in992.6 mb 0.00 in0.0 mm 0.00 in0.0 mm 0.00 in0.0 mm
03:40 PM 43.0°F6.1°C 7.8°F-13.4°C 23% 20.7 mph SW33.3 kmh SW 36.0 mph57.9 kmh 29.32 in992.9 mb 0.00 in0.0 mm 0.00 in0.0 mm 0.00 in0.0 mm
03:35 PM 43.2°F6.2°C 7.9°F-13.4°C 23% 21.4 mph SW34.4 kmh SW 36.0 mph57.9 kmh 29.32 in992.9 mb 0.00 in0.0 mm 0.00 in0.0 mm 0.00 in0.0 mm
03:30 PM 43.5°F6.4°C 8.2°F-13.2°C 23% 16.5 mph SW26.6 kmh SW 30.0 mph48.3 kmh 29.32 in992.9 mb 0.00 in0.0 mm 0.00 in0.0 mm 0.00 in0.0 mm
03:25 PM 44.1°F6.7°C 7.7°F-13.5°C 22% 12.4 mph SW20.0 kmh SW 28.0 mph45.1 kmh 29.32 in992.9 mb 0.00 in0.0 mm 0.00 in0.0 mm 0.00 in0.0 mm
03:20 PM 43.7°F6.5°C 8.4°F-13.1°C 23% 14.7 mph SW23.7 kmh SW 38.0 mph61.2 kmh 29.32 in992.9 mb 0.00 in0.0 mm 0.00 in0.0 mm 0.00 in0.0 mm
03:15 PM 43.3°F6.3°C 8.0°F-13.3°C 23% 21.1 mph SW34.0 kmh SW 38.0 mph61.2 kmh 29.32 in992.9 mb 0.00 in0.0 mm 0.00 in0.0 mm 0.00 in0.0 mm
03:10 PM 44.3°F6.8°C 7.9°F-13.4°C 22% 16.2 mph SW26.1 kmh SW 31.0 mph49.9 kmh 29.32 in992.9 mb 0.00 in0.0 mm 0.00 in0.0 mm 0.00 in0.0 mm
03:05 PM 44.9°F7.2°C 8.4°F-13.1°C 22% 13.7 mph SW22.0 kmh SW 30.0 mph48.3 kmh 29.32 in992.9 mb 0.00 in0.0 mm 0.00 in0.0 mm 0.00 in0.0 mm
03:00 PM 44.7°F7.1°C 8.2°F-13.2°C 22% 11.9 mph SW19.2 kmh SW 30.0 mph48.3 kmh 29.32 in992.9 mb 0.00 in0.0 mm 0.00 in0.0 mm 0.00 in0.0 mm
02:55 PM 44.4°F6.9°C 8.0°F-13.3°C 22% 14.4 mph SW23.2 kmh SW 30.0 mph48.3 kmh 29.32 in992.9 mb 0.00 in0.0 mm 0.00 in0.0 mm 0.00 in0.0 mm
02:50 PM 44.9°F7.2°C 8.4°F-13.1°C 22% 13.8 mph SW22.2 kmh SW 23.0 mph37.0 kmh 29.32 in992.9 mb 0.00 in0.0 mm 0.00 in0.0 mm 0.00 in0.0 mm
02:45 PM 44.6°F7.0°C 8.1°F-13.3°C 22% 12.1 mph SW19.5 kmh SW 26.0 mph41.8 kmh 29.32 in992.9 mb 0.00 in0.0 mm 0.00 in0.0 mm 0.00 in0.0 mm
02:40 PM 44.0°F6.7°C 8.6°F-13.0°C 23% 14.4 mph SW23.2 kmh SW 29.0 mph46.7 kmh 29.32 in992.9 mb 0.00 in0.0 mm 0.00 in0.0 mm 0.00 in0.0 mm
02:35 PM 43.8°F6.6°C 7.5°F-13.6°C 22% 19.4 mph SW31.2 kmh SW 41.0 mph66.0 kmh 29.32 in992.9 mb 0.00 in0.0 mm 0.00 in0.0 mm 0.00 in0.0 mm
02:30 PM 43.9°F6.6°C 7.5°F-13.6°C 22% 17.0 mph WSW27.4 kmh WSW 41.0 mph66.0 kmh 29.33 in993.2 mb 0.00 in0.0 mm 0.00 in0.0 mm 0.00 in0.0 mm
02:25 PM 44.1°F6.7°C 8.7°F-12.9°C 23% 11.8 mph SW19.0 kmh SW 37.0 mph59.5 kmh 29.32 in992.9 mb 0.00 in0.0 mm 0.00 in0.0 mm 0.00 in0.0 mm
02:20 PM 43.4°F6.3°C 8.1°F-13.3°C 23% 17.2 mph SW27.7 kmh SW 37.0 mph59.5 kmh 29.33 in993.2 mb 0.00 in0.0 mm 0.00 in0.0 mm 0.00 in0.0 mm
02:15 PM 43.4°F6.3°C 8.1°F-13.3°C 23% 14.0 mph WSW22.5 kmh WSW 30.0 mph48.3 kmh 29.33 in993.2 mb 0.00 in0.0 mm 0.00 in0.0 mm 0.00 in0.0 mm
02:10 PM 43.4°F6.3°C 8.1°F-13.3°C 23% 15.7 mph SW25.3 kmh SW 30.0 mph48.3 kmh 29.33 in993.2 mb 0.00 in0.0 mm 0.00 in0.0 mm 0.00 in0.0 mm
02:05 PM 43.7°F6.5°C 8.4°F-13.1°C 23% 12.5 mph WSW20.1 kmh WSW 31.0 mph49.9 kmh 29.33 in993.2 mb 0.00 in0.0 mm 0.00 in0.0 mm 0.00 in0.0 mm
02:00 PM 43.7°F6.5°C 8.4°F-13.1°C 23% 17.5 mph WSW28.2 kmh WSW 31.0 mph49.9 kmh 29.34 in993.6 mb 0.00 in0.0 mm 0.00 in0.0 mm 0.00 in0.0 mm
01:55 PM 44.3°F6.8°C 7.9°F-13.4°C 22% 11.2 mph W18.0 kmh W 28.0 mph45.1 kmh 29.33 in993.2 mb 0.00 in0.0 mm 0.00 in0.0 mm 0.00 in0.0 mm
01:50 PM 43.4°F6.3°C 7.1°F-13.8°C 22% 14.8 mph WSW23.8 kmh WSW 28.0 mph45.1 kmh 29.34 in993.6 mb 0.00 in0.0 mm 0.00 in0.0 mm 0.00 in0.0 mm
01:45 PM 43.5°F6.4°C 7.2°F-13.8°C 22% 16.9 mph WSW27.2 kmh WSW 31.0 mph49.9 kmh 29.34 in993.6 mb 0.00 in0.0 mm 0.00 in0.0 mm 0.00 in0.0 mm
01:40 PM 43.8°F6.6°C 7.5°F-13.6°C 22% 16.4 mph SW26.4 kmh SW 31.0 mph49.9 kmh 29.34 in993.6 mb 0.00 in0.0 mm 0.00 in0.0 mm 0.00 in0.0 mm
01:35 PM 43.4°F6.3°C 8.1°F-13.3°C 23% 17.0 mph SW27.4 kmh SW 31.0 mph49.9 kmh 29.34 in993.6 mb 0.00 in0.0 mm 0.00 in0.0 mm 0.00 in0.0 mm
01:30 PM 42.7°F5.9°C 11.1°F-11.6°C 27% 7.8 mph W12.6 kmh W 21.0 mph33.8 kmh 29.35 in993.9 mb 0.00 in0.0 mm 0.00 in0.0 mm 0.00 in0.0 mm
01:25 PM 41.8°F5.4°C 11.1°F-11.6°C 28% 10.4 mph W16.7 kmh W 21.0 mph33.8 kmh 29.35 in993.9 mb 0.00 in0.0 mm 0.00 in0.0 mm 0.00 in0.0 mm
01:20 PM 41.3°F5.2°C 12.2°F-11.0°C 30% 9.7 mph W15.6 kmh W 22.0 mph35.4 kmh 29.36 in994.2 mb 0.00 in0.0 mm 0.00 in0.0 mm 0.00 in0.0 mm
01:15 PM 41.2°F5.1°C 12.1°F-11.1°C 30% 11.8 mph W19.0 kmh W 22.0 mph35.4 kmh 29.37 in994.6 mb 0.00 in0.0 mm 0.00 in0.0 mm 0.00 in0.0 mm
01:10 PM 40.9°F4.9°C 11.1°F-11.6°C 29% 11.5 mph WNW18.5 kmh WNW 24.0 mph38.6 kmh 29.37 in994.6 mb 0.00 in0.0 mm 0.00 in0.0 mm 0.00 in0.0 mm
01:05 PM 41.0°F5.0°C 11.2°F-11.6°C 29% 12.4 mph W20.0 kmh W 27.0 mph43.5 kmh 29.37 in994.6 mb 0.00 in0.0 mm 0.00 in0.0 mm 0.00 in0.0 mm
01:00 PM 41.0°F5.0°C 11.2°F-11.6°C 29% 12.5 mph WSW20.1 kmh WSW 27.0 mph43.5 kmh 29.36 in994.2 mb 0.00 in0.0 mm 0.00 in0.0 mm 0.00 in0.0 mm
12:55 PM 40.8°F4.9°C 11.0°F-11.7°C 29% 11.9 mph W19.2 kmh W 24.0 mph38.6 kmh 29.37 in994.6 mb 0.00 in0.0 mm 0.00 in0.0 mm 0.00 in0.0 mm
12:50 PM 40.7°F4.8°C 10.9°F-11.7°C 29% 10.8 mph WSW17.4 kmh WSW 30.0 mph48.3 kmh 29.37 in994.6 mb 0.00 in0.0 mm 0.00 in0.0 mm 0.00 in0.0 mm
12:45 PM 40.4°F4.7°C 9.9°F-12.3°C 28% 15.0 mph WSW24.1 kmh WSW 38.0 mph61.2 kmh 29.37 in994.6 mb 0.00 in0.0 mm 0.00 in0.0 mm 0.00 in0.0 mm
12:40 PM 40.6°F4.8°C 10.1°F-12.2°C 28% 16.1 mph W25.9 kmh W 38.0 mph61.2 kmh 29.37 in994.6 mb 0.00 in0.0 mm 0.00 in0.0 mm 0.00 in0.0 mm
12:35 PM 40.8°F4.9°C 10.3°F-12.1°C 28% 13.5 mph WSW21.7 kmh WSW 33.0 mph53.1 kmh 29.38 in994.9 mb 0.00 in0.0 mm 0.00 in0.0 mm 0.00 in0.0 mm
12:30 PM 40.6°F4.8°C 10.1°F-12.2°C 28% 14.2 mph W22.9 kmh W 33.0 mph53.1 kmh 29.37 in994.6 mb 0.00 in0.0 mm 0.00 in0.0 mm 0.00 in0.0 mm
12:25 PM 40.9°F4.9°C 9.5°F-12.5°C 27% 12.9 mph WSW20.8 kmh WSW 30.0 mph48.3 kmh 29.37 in994.6 mb 0.00 in0.0 mm 0.00 in0.0 mm 0.00 in0.0 mm
12:20 PM 40.7°F4.8°C 9.4°F-12.6°C 27% 16.0 mph W25.7 kmh W 27.0 mph43.5 kmh 29.37 in994.6 mb 0.00 in0.0 mm 0.00 in0.0 mm 0.00 in0.0 mm
12:15 PM 41.2°F5.1°C 9.8°F-12.3°C 27% 12.7 mph WSW20.4 kmh WSW 26.0 mph41.8 kmh 29.38 in994.9 mb 0.00 in0.0 mm 0.00 in0.0 mm 0.00 in0.0 mm
12:10 PM 41.4°F5.2°C 10.0°F-12.2°C 27% 12.3 mph SW19.8 kmh SW 27.0 mph43.5 kmh 29.38 in994.9 mb 0.00 in0.0 mm 0.00 in0.0 mm 0.00 in0.0 mm
12:05 PM 40.8°F4.9°C 9.4°F-12.6°C 27% 12.5 mph SW20.1 kmh SW 31.0 mph49.9 kmh 29.38 in994.9 mb 0.00 in0.0 mm 0.00 in0.0 mm 0.00 in0.0 mm
12:00 PM 40.3°F4.6°C 9.0°F-12.8°C 27% 15.5 mph WSW24.9 kmh WSW 33.0 mph53.1 kmh 29.38 in994.9 mb 0.00 in0.0 mm 0.00 in0.0 mm 0.00 in0.0 mm
11:55 AM 40.3°F4.6°C 9.0°F-12.8°C 27% 14.1 mph WSW22.7 kmh WSW 33.0 mph53.1 kmh 29.39 in995.3 mb 0.00 in0.0 mm 0.00 in0.0 mm 0.00 in0.0 mm
11:50 AM 40.4°F4.7°C 9.1°F-12.7°C 27% 16.3 mph WSW26.2 kmh WSW 32.0 mph51.5 kmh 29.39 in995.3 mb 0.00 in0.0 mm 0.00 in0.0 mm 0.00 in0.0 mm
11:45 AM 40.6°F4.8°C 8.4°F-13.1°C 26% 13.3 mph WSW21.4 kmh WSW 29.0 mph46.7 kmh 29.39 in995.3 mb 0.00 in0.0 mm 0.00 in0.0 mm 0.00 in0.0 mm
11:40 AM 41.1°F5.1°C 8.0°F-13.3°C 25% 14.8 mph WSW23.8 kmh WSW 33.0 mph53.1 kmh 29.39 in995.3 mb 0.00 in0.0 mm 0.00 in0.0 mm 0.00 in0.0 mm
11:35 AM 41.9°F5.5°C 6.8°F-14.0°C 23% 16.3 mph WSW26.2 kmh WSW 33.0 mph53.1 kmh 29.39 in995.3 mb 0.00 in0.0 mm 0.00 in0.0 mm 0.00 in0.0 mm
11:30 AM 42.2°F5.7°C 5.1°F-14.9°C 21% 17.5 mph SW28.2 kmh SW 32.0 mph51.5 kmh 29.39 in995.3 mb 0.00 in0.0 mm 0.00 in0.0 mm 0.00 in0.0 mm
11:25 AM 42.1°F5.6°C 7.0°F-13.9°C 23% 11.3 mph WSW18.2 kmh WSW 21.0 mph33.8 kmh 29.38 in994.9 mb 0.00 in0.0 mm 0.00 in0.0 mm 0.00 in0.0 mm
11:20 AM 42.5°F5.8°C 6.4°F-14.2°C 22% 11.8 mph WSW19.0 kmh WSW 31.0 mph49.9 kmh 29.39 in995.3 mb 0.00 in0.0 mm 0.00 in0.0 mm 0.00 in0.0 mm
11:15 AM 42.0°F5.6°C 5.9°F-14.5°C 22% 16.9 mph SW27.2 kmh SW 33.0 mph53.1 kmh 29.39 in995.3 mb 0.00 in0.0 mm 0.00 in0.0 mm 0.00 in0.0 mm
11:10 AM 42.1°F5.6°C 5.0°F-15.0°C 21% 19.4 mph SW31.2 kmh SW 33.0 mph53.1 kmh 29.39 in995.3 mb 0.00 in0.0 mm 0.00 in0.0 mm 0.00 in0.0 mm
11:05 AM 41.8°F5.4°C 4.8°F-15.1°C 21% 18.7 mph WSW30.1 kmh WSW 33.0 mph53.1 kmh 29.39 in995.3 mb 0.00 in0.0 mm 0.00 in0.0 mm 0.00 in0.0 mm
11:00 AM 41.4°F5.2°C 4.4°F-15.3°C 21% 19.8 mph WSW31.9 kmh WSW 37.0 mph59.5 kmh 29.39 in995.3 mb 0.00 in0.0 mm 0.00 in0.0 mm 0.00 in0.0 mm
10:55 AM 41.5°F5.3°C 3.5°F-15.8°C 20% 21.0 mph WSW33.8 kmh WSW 37.0 mph59.5 kmh 29.39 in995.3 mb 0.00 in0.0 mm 0.00 in0.0 mm 0.00 in0.0 mm
10:50 AM 41.6°F5.3°C 4.6°F-15.2°C 21% 17.3 mph SW27.8 kmh SW 37.0 mph59.5 kmh 29.40 in995.6 mb 0.00 in0.0 mm 0.00 in0.0 mm 0.00 in0.0 mm
10:45 AM 41.2°F5.1°C 4.3°F-15.4°C 21% 19.2 mph WSW30.9 kmh WSW 42.0 mph67.6 kmh 29.41 in995.9 mb 0.00 in0.0 mm 0.00 in0.0 mm 0.00 in0.0 mm
10:40 AM 41.0°F5.0°C 4.1°F-15.5°C 21% 22.9 mph WSW36.9 kmh WSW 42.0 mph67.6 kmh 29.41 in995.9 mb 0.00 in0.0 mm 0.00 in0.0 mm 0.00 in0.0 mm
10:35 AM 41.2°F5.1°C 3.2°F-16.0°C 20% 22.3 mph WSW35.9 kmh WSW 37.0 mph59.5 kmh 29.41 in995.9 mb 0.00 in0.0 mm 0.00 in0.0 mm 0.00 in0.0 mm
10:30 AM 41.6°F5.3°C 4.6°F-15.2°C 21% 14.3 mph SW23.0 kmh SW 34.0 mph54.7 kmh 29.41 in995.9 mb 0.00 in0.0 mm 0.00 in0.0 mm 0.00 in0.0 mm
10:25 AM 41.1°F5.1°C 4.2°F-15.4°C 21% 17.3 mph SW27.8 kmh SW 34.0 mph54.7 kmh 29.41 in995.9 mb 0.00 in0.0 mm 0.00 in0.0 mm 0.00 in0.0 mm
10:20 AM 40.9°F4.9°C 4.0°F-15.6°C 21% 19.7 mph WSW31.7 kmh WSW 34.0 mph54.7 kmh 29.41 in995.9 mb 0.00 in0.0 mm 0.00 in0.0 mm 0.00 in0.0 mm
10:15 AM 40.9°F4.9°C 4.0°F-15.6°C 21% 16.8 mph WSW27.0 kmh WSW 30.0 mph48.3 kmh 29.42 in996.3 mb 0.00 in0.0 mm 0.00 in0.0 mm 0.00 in0.0 mm
10:10 AM 40.9°F4.9°C 4.0°F-15.6°C 21% 17.0 mph WSW27.4 kmh WSW 33.0 mph53.1 kmh 29.42 in996.3 mb 0.00 in0.0 mm 0.00 in0.0 mm 0.00 in0.0 mm
10:05 AM 40.9°F4.9°C 4.0°F-15.6°C 21% 15.7 mph SW25.3 kmh SW 33.0 mph53.1 kmh 29.43 in996.6 mb 0.00 in0.0 mm 0.00 in0.0 mm 0.00 in0.0 mm
10:00 AM 40.7°F4.8°C 3.8°F-15.7°C 21% 18.5 mph SW29.8 kmh SW 31.0 mph49.9 kmh 29.43 in996.6 mb 0.00 in0.0 mm 0.00 in0.0 mm 0.00 in0.0 mm
09:55 AM 40.9°F4.9°C 4.0°F-15.6°C 21% 12.7 mph SW20.4 kmh SW 25.0 mph40.2 kmh 29.43 in996.6 mb 0.00 in0.0 mm 0.00 in0.0 mm 0.00 in0.0 mm
09:50 AM 40.6°F4.8°C 3.8°F-15.7°C 21% 14.6 mph WSW23.5 kmh WSW 25.0 mph40.2 kmh 29.44 in997.0 mb 0.00 in0.0 mm 0.00 in0.0 mm 0.00 in0.0 mm
09:45 AM 40.3°F4.6°C 3.5°F-15.8°C 21% 12.4 mph WSW20.0 kmh WSW 30.0 mph48.3 kmh 29.43 in996.6 mb 0.00 in0.0 mm 0.00 in0.0 mm 0.00 in0.0 mm
09:40 AM 39.8°F4.3°C 3.1°F-16.1°C 21% 16.0 mph WSW25.7 kmh WSW 30.0 mph48.3 kmh 29.43 in996.6 mb 0.00 in0.0 mm 0.00 in0.0 mm 0.00 in0.0 mm
09:35 AM 39.7°F4.3°C 4.0°F-15.6°C 22% 15.5 mph SW24.9 kmh SW 39.0 mph62.8 kmh 29.44 in997.0 mb 0.00 in0.0 mm 0.00 in0.0 mm 0.00 in0.0 mm
09:30 AM 39.3°F4.1°C 3.7°F-15.7°C 22% 19.7 mph SW31.7 kmh SW 39.0 mph62.8 kmh 29.43 in996.6 mb 0.00 in0.0 mm 0.00 in0.0 mm 0.00 in0.0 mm
09:25 AM 39.2°F4.0°C 3.6°F-15.8°C 22% 18.0 mph WSW29.0 kmh WSW 37.0 mph59.5 kmh 29.44 in997.0 mb 0.00 in0.0 mm 0.00 in0.0 mm 0.00 in0.0 mm
09:20 AM 38.5°F3.6°C 3.0°F-16.1°C 22% 17.5 mph SW28.2 kmh SW 34.0 mph54.7 kmh 29.43 in996.6 mb 0.00 in0.0 mm 0.00 in0.0 mm 0.00 in0.0 mm
09:15 AM 38.0°F3.3°C 3.5°F-15.8°C 23% 20.6 mph SW33.2 kmh SW 34.0 mph54.7 kmh 29.43 in996.6 mb 0.00 in0.0 mm 0.00 in0.0 mm 0.00 in0.0 mm
09:10 AM 37.9°F3.3°C 3.5°F-15.8°C 23% 19.7 mph SW31.7 kmh SW 33.0 mph53.1 kmh 29.44 in997.0 mb 0.00 in0.0 mm 0.00 in0.0 mm 0.00 in0.0 mm
09:05 AM 37.6°F3.1°C 3.2°F-16.0°C 23% 18.4 mph SW29.6 kmh SW 39.0 mph62.8 kmh 29.44 in997.0 mb 0.00 in0.0 mm 0.00 in0.0 mm 0.00 in0.0 mm
09:00 AM 37.5°F3.1°C 3.1°F-16.1°C 23% 23.7 mph SW38.1 kmh SW 39.0 mph62.8 kmh 29.43 in996.6 mb 0.00 in0.0 mm 0.00 in0.0 mm 0.00 in0.0 mm
08:55 AM 37.2°F2.9°C 3.8°F-15.7°C 24% 19.5 mph SW31.4 kmh SW 38.0 mph61.2 kmh 29.43 in996.6 mb 0.00 in0.0 mm 0.00 in0.0 mm 0.00 in0.0 mm
08:50 AM 37.0°F2.8°C 2.7°F-16.3°C 23% 19.8 mph SW31.9 kmh SW 34.0 mph54.7 kmh 29.44 in997.0 mb 0.00 in0.0 mm 0.00 in0.0 mm 0.00 in0.0 mm
08:45 AM 36.8°F2.7°C 3.4°F-15.9°C 24% 17.6 mph SW28.3 kmh SW 35.0 mph56.3 kmh 29.44 in997.0 mb 0.00 in0.0 mm 0.00 in0.0 mm 0.00 in0.0 mm
08:40 AM 36.7°F2.6°C 3.3°F-15.9°C 24% 21.7 mph WSW34.9 kmh WSW 42.0 mph67.6 kmh 29.44 in997.0 mb 0.00 in0.0 mm 0.00 in0.0 mm 0.00 in0.0 mm
08:35 AM 36.6°F2.6°C 3.3°F-15.9°C 24% 21.2 mph SW34.1 kmh SW 42.0 mph67.6 kmh 29.45 in997.3 mb 0.00 in0.0 mm 0.00 in0.0 mm 0.00 in0.0 mm
08:30 AM 36.5°F2.5°C 3.2°F-16.0°C 24% 19.7 mph SW31.7 kmh SW 49.0 mph78.9 kmh 29.44 in997.0 mb 0.00 in0.0 mm 0.00 in0.0 mm 0.00 in0.0 mm
08:25 AM 36.6°F2.6°C 3.3°F-15.9°C 24% 24.8 mph WSW39.9 kmh WSW 49.0 mph78.9 kmh 29.44 in997.0 mb 0.00 in0.0 mm 0.00 in0.0 mm 0.00 in0.0 mm
08:20 AM 36.5°F2.5°C 3.2°F-16.0°C 24% 23.4 mph SW37.7 kmh SW 43.0 mph69.2 kmh 29.45 in997.3 mb 0.00 in0.0 mm 0.00 in0.0 mm 0.00 in0.0 mm
08:15 AM 36.6°F2.6°C 3.3°F-15.9°C 24% 22.7 mph SW36.5 kmh SW 44.0 mph70.8 kmh 29.45 in997.3 mb 0.00 in0.0 mm 0.00 in0.0 mm 0.00 in0.0 mm
08:10 AM 37.0°F2.8°C 3.6°F-15.8°C 24% 27.6 mph SW44.4 kmh SW 51.0 mph82.1 kmh 29.44 in997.0 mb 0.00 in0.0 mm 0.00 in0.0 mm 0.00 in0.0 mm
08:05 AM 37.1°F2.8°C 2.8°F-16.2°C 23% 27.9 mph SW44.9 kmh SW 51.0 mph82.1 kmh 29.43 in996.6 mb 0.00 in0.0 mm 0.00 in0.0 mm 0.00 in0.0 mm
08:00 AM 37.1°F2.8°C 3.7°F-15.7°C 24% 24.9 mph SW40.1 kmh SW 50.0 mph80.5 kmh 29.44 in997.0 mb 0.00 in0.0 mm 0.00 in0.0 mm 0.00 in0.0 mm
07:55 AM 37.2°F2.9°C 2.9°F-16.2°C 23% 27.9 mph SW44.9 kmh SW 51.0 mph82.1 kmh 29.42 in996.3 mb 0.00 in0.0 mm 0.00 in0.0 mm 0.00 in0.0 mm
07:50 AM 37.3°F2.9°C 2.9°F-16.2°C 23% 26.9 mph SW43.3 kmh SW 51.0 mph82.1 kmh 29.42 in996.3 mb 0.00 in0.0 mm 0.00 in0.0 mm 0.00 in0.0 mm
07:45 AM 37.2°F2.9°C 3.8°F-15.7°C 24% 25.7 mph SW41.4 kmh SW 47.0 mph75.6 kmh 29.43 in996.6 mb 0.00 in0.0 mm 0.00 in0.0 mm 0.00 in0.0 mm
07:40 AM 37.1°F2.8°C 4.6°F-15.2°C 25% 26.8 mph SW43.1 kmh SW 43.0 mph69.2 kmh 29.43 in996.6 mb 0.00 in0.0 mm 0.00 in0.0 mm 0.00 in0.0 mm
07:35 AM 37.0°F2.8°C 5.3°F-14.8°C 26% 23.3 mph SW37.5 kmh SW 43.0 mph69.2 kmh 29.44 in997.0 mb 0.00 in0.0 mm 0.00 in0.0 mm 0.00 in0.0 mm
07:30 AM 37.1°F2.8°C 5.4°F-14.8°C 26% 25.9 mph SW41.7 kmh SW 43.0 mph69.2 kmh 29.44 in997.0 mb 0.00 in0.0 mm 0.00 in0.0 mm 0.00 in0.0 mm
07:25 AM 36.9°F2.7°C 6.1°F-14.4°C 27% 23.0 mph SW37.0 kmh SW 36.0 mph57.9 kmh 29.45 in997.3 mb 0.00 in0.0 mm 0.00 in0.0 mm 0.00 in0.0 mm
07:20 AM 36.8°F2.7°C 6.0°F-14.4°C 27% 22.5 mph WSW36.2 kmh WSW 43.0 mph69.2 kmh 29.45 in997.3 mb 0.00 in0.0 mm 0.00 in0.0 mm 0.00 in0.0 mm
07:15 AM 36.7°F2.6°C 6.7°F-14.1°C 28% 20.8 mph WSW33.5 kmh WSW 43.0 mph69.2 kmh 29.46 in997.6 mb 0.00 in0.0 mm 0.00 in0.0 mm 0.00 in0.0 mm
07:10 AM 36.6°F2.6°C 6.6°F-14.1°C 28% 19.7 mph SW31.7 kmh SW 43.0 mph69.2 kmh 29.47 in998.0 mb 0.00 in0.0 mm 0.00 in0.0 mm 0.00 in0.0 mm
07:05 AM 36.7°F2.6°C 5.9°F-14.5°C 27% 22.7 mph SW36.5 kmh SW 43.0 mph69.2 kmh 29.47 in998.0 mb 0.00 in0.0 mm 0.00 in0.0 mm 0.00 in0.0 mm
07:00 AM 36.7°F2.6°C 5.9°F-14.5°C 27% 19.6 mph SW31.5 kmh SW 37.0 mph59.5 kmh 29.48 in998.3 mb 0.00 in0.0 mm 0.00 in0.0 mm 0.00 in0.0 mm
06:55 AM 36.7°F2.6°C 5.9°F-14.5°C 27% 21.0 mph SW33.8 kmh SW 37.0 mph59.5 kmh 29.48 in998.3 mb 0.00 in0.0 mm 0.00 in0.0 mm 0.00 in0.0 mm
06:50 AM 36.6°F2.6°C 5.8°F-14.6°C 27% 19.6 mph SW31.5 kmh SW 35.0 mph56.3 kmh 29.50 in999.0 mb 0.00 in0.0 mm 0.00 in0.0 mm 0.00 in0.0 mm
06:45 AM 36.7°F2.6°C 5.1°F-14.9°C 26% 22.0 mph SW35.4 kmh SW 37.0 mph59.5 kmh 29.51 in999.3 mb 0.00 in0.0 mm 0.00 in0.0 mm 0.00 in0.0 mm
06:40 AM 36.6°F2.6°C 5.8°F-14.6°C 27% 19.8 mph SW31.9 kmh SW 44.0 mph70.8 kmh 29.51 in999.3 mb 0.00 in0.0 mm 0.00 in0.0 mm 0.00 in0.0 mm
06:35 AM 36.8°F2.7°C 6.0°F-14.4°C 27% 22.9 mph SW36.9 kmh SW 44.0 mph70.8 kmh 29.52 in999.7 mb 0.00 in0.0 mm 0.00 in0.0 mm 0.00 in0.0 mm
06:30 AM 37.1°F2.8°C 5.4°F-14.8°C 26% 21.7 mph SW34.9 kmh SW 39.0 mph62.8 kmh 29.52 in999.7 mb 0.00 in0.0 mm 0.00 in0.0 mm 0.00 in0.0 mm
06:25 AM 37.1°F2.8°C 5.4°F-14.8°C 26% 22.2 mph WSW35.7 kmh WSW 39.0 mph62.8 kmh 29.52 in999.7 mb 0.00 in0.0 mm 0.00 in0.0 mm 0.00 in0.0 mm
06:20 AM 37.2°F2.9°C 5.5°F-14.7°C 26% 20.6 mph SW33.2 kmh SW 46.0 mph74.0 kmh 29.53 in1000.0 mb 0.00 in0.0 mm 0.00 in0.0 mm 0.00 in0.0 mm
06:15 AM 37.4°F3.0°C 5.7°F-14.6°C 26% 26.7 mph SW43.0 kmh SW 46.0 mph74.0 kmh 29.53 in1000.0 mb 0.00 in0.0 mm 0.00 in0.0 mm 0.00 in0.0 mm
06:10 AM 37.3°F2.9°C 4.7°F-15.2°C 25% 22.6 mph WSW36.4 kmh WSW 45.0 mph72.4 kmh 29.52 in999.7 mb 0.00 in0.0 mm 0.00 in0.0 mm 0.00 in0.0 mm
06:05 AM 37.1°F2.8°C 4.6°F-15.2°C 25% 23.1 mph SW37.2 kmh SW 45.0 mph72.4 kmh 29.53 in1000.0 mb 0.00 in0.0 mm 0.00 in0.0 mm 0.00 in0.0 mm
06:00 AM 37.0°F2.8°C 4.5°F-15.3°C 25% 24.3 mph SW39.1 kmh SW 42.0 mph67.6 kmh 29.53 in1000.0 mb 0.00 in0.0 mm 0.00 in0.0 mm 0.00 in0.0 mm
05:55 AM 36.9°F2.7°C 4.4°F-15.3°C 25% 21.6 mph SW34.8 kmh SW 39.0 mph62.8 kmh 29.53 in1000.0 mb 0.00 in0.0 mm 0.00 in0.0 mm 0.00 in0.0 mm
05:50 AM 36.9°F2.7°C 4.4°F-15.3°C 25% 21.0 mph WSW33.8 kmh WSW 39.0 mph62.8 kmh 29.54 in1000.3 mb 0.00 in0.0 mm 0.00 in0.0 mm 0.00 in0.0 mm
05:45 AM 36.7°F2.6°C 5.1°F-14.9°C 26% 18.7 mph SW30.1 kmh SW 37.0 mph59.5 kmh 29.54 in1000.3 mb 0.00 in0.0 mm 0.00 in0.0 mm 0.00 in0.0 mm
05:40 AM 36.8°F2.7°C 5.2°F-14.9°C 26% 20.7 mph WSW33.3 kmh WSW 37.0 mph59.5 kmh 29.55 in1000.7 mb 0.00 in0.0 mm 0.00 in0.0 mm 0.00 in0.0 mm
05:35 AM 36.7°F2.6°C 5.1°F-14.9°C 26% 19.4 mph WSW31.2 kmh WSW 37.0 mph59.5 kmh 29.55 in1000.7 mb 0.00 in0.0 mm 0.00 in0.0 mm 0.00 in0.0 mm
05:30 AM 36.5°F2.5°C 4.9°F-15.1°C 26% 18.7 mph SW30.1 kmh SW 37.0 mph59.5 kmh 29.55 in1000.7 mb 0.00 in0.0 mm 0.00 in0.0 mm 0.00 in0.0 mm
05:25 AM 36.3°F2.4°C 5.6°F-14.7°C 27% 16.6 mph SW26.7 kmh SW 35.0 mph56.3 kmh 29.55 in1000.7 mb 0.00 in0.0 mm 0.00 in0.0 mm 0.00 in0.0 mm
05:20 AM 36.5°F2.5°C 4.9°F-15.1°C 26% 19.6 mph WSW31.5 kmh WSW 35.0 mph56.3 kmh 29.55 in1000.7 mb 0.00 in0.0 mm 0.00 in0.0 mm 0.00 in0.0 mm
05:15 AM 36.5°F2.5°C 4.9°F-15.1°C 26% 20.0 mph SW32.2 kmh SW 39.0 mph62.8 kmh 29.55 in1000.7 mb 0.00 in0.0 mm 0.00 in0.0 mm 0.00 in0.0 mm
05:10 AM 36.8°F2.7°C 5.2°F-14.9°C 26% 25.8 mph WSW41.5 kmh WSW 39.0 mph62.8 kmh 29.54 in1000.3 mb 0.00 in0.0 mm 0.00 in0.0 mm 0.00 in0.0 mm
05:05 AM 36.4°F2.4°C 4.8°F-15.1°C 26% 20.5 mph SW33.0 kmh SW 48.0 mph77.2 kmh 29.55 in1000.7 mb 0.00 in0.0 mm 0.00 in0.0 mm 0.00 in0.0 mm
05:00 AM 36.6°F2.6°C 5.0°F-15.0°C 26% 23.7 mph SW38.1 kmh SW 48.0 mph77.2 kmh 29.55 in1000.7 mb 0.00 in0.0 mm 0.00 in0.0 mm 0.00 in0.0 mm
04:55 AM 36.7°F2.6°C 5.1°F-14.9°C 26% 20.7 mph SW33.3 kmh SW 38.0 mph61.2 kmh 29.56 in1001.0 mb 0.00 in0.0 mm 0.00 in0.0 mm 0.00 in0.0 mm
04:50 AM 36.8°F2.7°C 5.2°F-14.9°C 26% 22.3 mph WSW35.9 kmh WSW 51.0 mph82.1 kmh 29.56 in1001.0 mb 0.00 in0.0 mm 0.00 in0.0 mm 0.00 in0.0 mm
04:45 AM 37.0°F2.8°C 5.3°F-14.8°C 26% 24.5 mph SW39.4 kmh SW 51.0 mph82.1 kmh 29.57 in1001.4 mb 0.00 in0.0 mm 0.00 in0.0 mm 0.00 in0.0 mm
04:40 AM 37.1°F2.8°C 5.4°F-14.8°C 26% 22.8 mph WSW36.7 kmh WSW 40.0 mph64.4 kmh 29.57 in1001.4 mb 0.00 in0.0 mm 0.00 in0.0 mm 0.00 in0.0 mm
04:35 AM 37.2°F2.9°C 5.5°F-14.7°C 26% 17.8 mph WSW28.6 kmh WSW 34.0 mph54.7 kmh 29.57 in1001.4 mb 0.00 in0.0 mm 0.00 in0.0 mm 0.00 in0.0 mm
04:30 AM 37.3°F2.9°C 5.6°F-14.7°C 26% 17.3 mph WSW27.8 kmh WSW 40.0 mph64.4 kmh 29.58 in1001.7 mb 0.00 in0.0 mm 0.00 in0.0 mm 0.00 in0.0 mm
04:25 AM 37.5°F3.1°C 4.9°F-15.1°C 25% 19.3 mph WSW31.1 kmh WSW 40.0 mph64.4 kmh 29.59 in1002.0 mb 0.00 in0.0 mm 0.00 in0.0 mm 0.00 in0.0 mm
04:20 AM 37.4°F3.0°C 5.7°F-14.6°C 26% 16.6 mph WSW26.7 kmh WSW 29.0 mph46.7 kmh 29.59 in1002.0 mb 0.00 in0.0 mm 0.00 in0.0 mm 0.00 in0.0 mm
04:15 AM 37.5°F3.1°C 4.9°F-15.1°C 25% 16.3 mph WSW26.2 kmh WSW 34.0 mph54.7 kmh 29.59 in1002.0 mb 0.00 in0.0 mm 0.00 in0.0 mm 0.00 in0.0 mm
04:10 AM 37.5°F3.1°C 5.8°F-14.6°C 26% 17.9 mph SW28.8 kmh SW 34.0 mph54.7 kmh 29.59 in1002.0 mb 0.00 in0.0 mm 0.00 in0.0 mm 0.00 in0.0 mm
04:05 AM 37.4°F3.0°C 5.7°F-14.6°C 26% 14.7 mph SW23.7 kmh SW 35.0 mph56.3 kmh 29.59 in1002.0 mb 0.00 in0.0 mm 0.00 in0.0 mm 0.00 in0.0 mm
04:00 AM 37.6°F3.1°C 5.9°F-14.5°C 26% 16.9 mph SW27.2 kmh SW 35.0 mph56.3 kmh 29.58 in1001.7 mb 0.00 in0.0 mm 0.00 in0.0 mm 0.00 in0.0 mm
03:55 AM 37.7°F3.2°C 5.9°F-14.5°C 26% 14.9 mph WSW24.0 kmh WSW 36.0 mph57.9 kmh 29.58 in1001.7 mb 0.00 in0.0 mm 0.00 in0.0 mm 0.00 in0.0 mm
03:50 AM 37.9°F3.3°C 5.3°F-14.8°C 25% 21.2 mph SW34.1 kmh SW 39.0 mph62.8 kmh 29.57 in1001.4 mb 0.00 in0.0 mm 0.00 in0.0 mm 0.00 in0.0 mm
03:45 AM 37.8°F3.2°C 5.2°F-14.9°C 25% 21.1 mph SW34.0 kmh SW 39.0 mph62.8 kmh 29.58 in1001.7 mb 0.00 in0.0 mm 0.00 in0.0 mm 0.00 in0.0 mm
03:40 AM 38.0°F3.3°C 5.3°F-14.8°C 25% 20.2 mph SW32.5 kmh SW 43.0 mph69.2 kmh 29.58 in1001.7 mb 0.00 in0.0 mm 0.00 in0.0 mm 0.00 in0.0 mm
03:35 AM 38.0°F3.3°C 5.3°F-14.8°C 25% 21.5 mph SW34.6 kmh SW 43.0 mph69.2 kmh 29.57 in1001.4 mb 0.00 in0.0 mm 0.00 in0.0 mm 0.00 in0.0 mm
03:30 AM 38.3°F3.5°C 5.6°F-14.7°C 25% 26.7 mph SW43.0 kmh SW 43.0 mph69.2 kmh 29.58 in1001.7 mb 0.00 in0.0 mm 0.00 in0.0 mm 0.00 in0.0 mm
03:25 AM 38.3°F3.5°C 6.5°F-14.2°C 26% 26.4 mph SW42.5 kmh SW 42.0 mph67.6 kmh 29.58 in1001.7 mb 0.00 in0.0 mm 0.00 in0.0 mm 0.00 in0.0 mm
03:20 AM 38.0°F3.3°C 6.2°F-14.3°C 26% 20.7 mph SW33.3 kmh SW 48.0 mph77.2 kmh 29.59 in1002.0 mb 0.00 in0.0 mm 0.00 in0.0 mm 0.00 in0.0 mm
03:15 AM 38.2°F3.4°C 6.4°F-14.2°C 26% 24.5 mph SW39.4 kmh SW 48.0 mph77.2 kmh 29.59 in1002.0 mb 0.00 in0.0 mm 0.00 in0.0 mm 0.00 in0.0 mm
03:10 AM 37.8°F3.2°C 6.9°F-13.9°C 27% 19.0 mph SW30.6 kmh SW 40.0 mph64.4 kmh 29.59 in1002.0 mb 0.00 in0.0 mm 0.00 in0.0 mm 0.00 in0.0 mm
03:05 AM 37.8°F3.2°C 6.9°F-13.9°C 27% 19.3 mph SW31.1 kmh SW 40.0 mph64.4 kmh 29.59 in1002.0 mb 0.00 in0.0 mm 0.00 in0.0 mm 0.00 in0.0 mm
03:00 AM 37.9°F3.3°C 6.9°F-13.9°C 27% 21.6 mph SW34.8 kmh SW 40.0 mph64.4 kmh 29.61 in1002.7 mb 0.00 in0.0 mm 0.00 in0.0 mm 0.00 in0.0 mm
02:55 AM 37.9°F3.3°C 6.9°F-13.9°C 27% 21.5 mph SW34.6 kmh SW 38.0 mph61.2 kmh 29.61 in1002.7 mb 0.00 in0.0 mm 0.00 in0.0 mm 0.00 in0.0 mm
02:50 AM 38.0°F3.3°C 7.0°F-13.9°C 27% 23.9 mph SW38.5 kmh SW 38.0 mph61.2 kmh 29.61 in1002.7 mb 0.00 in0.0 mm 0.00 in0.0 mm 0.00 in0.0 mm
02:45 AM 37.8°F3.2°C 6.9°F-13.9°C 27% 24.2 mph SW38.9 kmh SW 39.0 mph62.8 kmh 29.62 in1003.0 mb 0.00 in0.0 mm 0.00 in0.0 mm 0.00 in0.0 mm
02:40 AM 37.7°F3.2°C 6.8°F-14.0°C 27% 19.7 mph SW31.7 kmh SW 43.0 mph69.2 kmh 29.62 in1003.0 mb 0.00 in0.0 mm 0.00 in0.0 mm 0.00 in0.0 mm
02:35 AM 37.9°F3.3°C 6.9°F-13.9°C 27% 22.9 mph SW36.9 kmh SW 43.0 mph69.2 kmh 29.63 in1003.4 mb 0.00 in0.0 mm 0.00 in0.0 mm 0.00 in0.0 mm
02:30 AM 38.1°F3.4°C 7.1°F-13.8°C 27% 26.5 mph SW42.6 kmh SW 43.0 mph69.2 kmh 29.64 in1003.7 mb 0.00 in0.0 mm 0.00 in0.0 mm 0.00 in0.0 mm
02:25 AM 38.2°F3.4°C 7.2°F-13.8°C 27% 25.2 mph SW40.6 kmh SW 46.0 mph74.0 kmh 29.64 in1003.7 mb 0.00 in0.0 mm 0.00 in0.0 mm 0.00 in0.0 mm
02:20 AM 38.2°F3.4°C 7.2°F-13.8°C 27% 26.0 mph SW41.8 kmh SW 46.0 mph74.0 kmh 29.64 in1003.7 mb 0.00 in0.0 mm 0.00 in0.0 mm 0.00 in0.0 mm
02:15 AM 38.3°F3.5°C 7.3°F-13.7°C 27% 26.9 mph SW43.3 kmh SW 43.0 mph69.2 kmh 29.64 in1003.7 mb 0.00 in0.0 mm 0.00 in0.0 mm 0.00 in0.0 mm
02:10 AM 38.3°F3.5°C 7.3°F-13.7°C 27% 25.3 mph SW40.7 kmh SW 43.0 mph69.2 kmh 29.65 in1004.1 mb 0.00 in0.0 mm 0.00 in0.0 mm 0.00 in0.0 mm
02:05 AM 38.2°F3.4°C 7.2°F-13.8°C 27% 21.4 mph SW34.4 kmh SW 40.0 mph64.4 kmh 29.66 in1004.4 mb 0.00 in0.0 mm 0.00 in0.0 mm 0.00 in0.0 mm
02:00 AM 38.3°F3.5°C 7.3°F-13.7°C 27% 23.5 mph SW37.8 kmh SW 43.0 mph69.2 kmh 29.67 in1004.7 mb 0.00 in0.0 mm 0.00 in0.0 mm 0.00 in0.0 mm
01:55 AM 38.3°F3.5°C 7.3°F-13.7°C 27% 21.7 mph SW34.9 kmh SW 43.0 mph69.2 kmh 29.67 in1004.7 mb 0.00 in0.0 mm 0.00 in0.0 mm 0.00 in0.0 mm
01:50 AM 38.1°F3.4°C 7.1°F-13.8°C 27% 17.0 mph SW27.4 kmh SW 35.0 mph56.3 kmh 29.68 in1005.1 mb 0.00 in0.0 mm 0.00 in0.0 mm 0.00 in0.0 mm
01:45 AM 38.2°F3.4°C 7.2°F-13.8°C 27% 17.4 mph SW28.0 kmh SW 37.0 mph59.5 kmh 29.68 in1005.1 mb 0.00 in0.0 mm 0.00 in0.0 mm 0.00 in0.0 mm
01:40 AM 38.3°F3.5°C 8.1°F-13.3°C 28% 18.3 mph WSW29.5 kmh WSW 37.0 mph59.5 kmh 29.68 in1005.1 mb 0.00 in0.0 mm 0.00 in0.0 mm 0.00 in0.0 mm
01:35 AM 38.2°F3.4°C 8.0°F-13.3°C 28% 17.5 mph WSW28.2 kmh WSW 34.0 mph54.7 kmh 29.68 in1005.1 mb 0.00 in0.0 mm 0.00 in0.0 mm 0.00 in0.0 mm
01:30 AM 38.0°F3.3°C 7.8°F-13.4°C 28% 19.4 mph SW31.2 kmh SW 34.0 mph54.7 kmh 29.69 in1005.4 mb 0.00 in0.0 mm 0.00 in0.0 mm 0.00 in0.0 mm
01:25 AM 37.7°F3.2°C 8.3°F-13.2°C 29% 18.3 mph SW29.5 kmh SW 31.0 mph49.9 kmh 29.68 in1005.1 mb 0.00 in0.0 mm 0.00 in0.0 mm 0.00 in0.0 mm
01:20 AM 37.4°F3.0°C 8.1°F-13.3°C 29% 13.3 mph WSW21.4 kmh WSW 27.0 mph43.5 kmh 29.70 in1005.8 mb 0.00 in0.0 mm 0.00 in0.0 mm 0.00 in0.0 mm
01:15 AM 37.4°F3.0°C 8.8°F-12.9°C 30% 14.4 mph SW23.2 kmh SW 30.0 mph48.3 kmh 29.70 in1005.8 mb 0.00 in0.0 mm 0.00 in0.0 mm 0.00 in0.0 mm
01:10 AM 37.6°F3.1°C 9.0°F-12.8°C 30% 17.8 mph SW28.6 kmh SW 36.0 mph57.9 kmh 29.70 in1005.8 mb 0.00 in0.0 mm 0.00 in0.0 mm 0.00 in0.0 mm
01:05 AM 37.6°F3.1°C 9.0°F-12.8°C 30% 17.3 mph SW27.8 kmh SW 36.0 mph57.9 kmh 29.71 in1006.1 mb 0.00 in0.0 mm 0.00 in0.0 mm 0.00 in0.0 mm
01:00 AM 37.5°F3.1°C 9.6°F-12.4°C 31% 18.8 mph SW30.3 kmh SW 34.0 mph54.7 kmh 29.72 in1006.4 mb 0.00 in0.0 mm 0.00 in0.0 mm 0.00 in0.0 mm
12:55 AM 37.2°F2.9°C 10.1°F-12.2°C 32% 13.4 mph SW21.6 kmh SW 28.0 mph45.1 kmh 29.72 in1006.4 mb 0.00 in0.0 mm 0.00 in0.0 mm 0.00 in0.0 mm
12:50 AM 37.3°F2.9°C 10.9°F-11.7°C 33% 13.9 mph SW22.4 kmh SW 27.0 mph43.5 kmh 29.73 in1006.8 mb 0.00 in0.0 mm 0.00 in0.0 mm 0.00 in0.0 mm
12:45 AM 37.1°F2.8°C 10.7°F-11.8°C 33% 10.6 mph SW17.1 kmh SW 23.0 mph37.0 kmh 29.74 in1007.1 mb 0.00 in0.0 mm 0.00 in0.0 mm 0.00 in0.0 mm
12:40 AM 36.9°F2.7°C 10.5°F-11.9°C 33% 11.8 mph SW19.0 kmh SW 19.0 mph30.6 kmh 29.74 in1007.1 mb 0.00 in0.0 mm 0.00 in0.0 mm 0.00 in0.0 mm
12:35 AM 36.5°F2.5°C 10.2°F-12.1°C 33% 10.8 mph SW17.4 kmh SW 19.0 mph30.6 kmh 29.74 in1007.1 mb 0.00 in0.0 mm 0.00 in0.0 mm 0.00 in0.0 mm
12:30 AM 35.9°F2.2°C 10.3°F-12.1°C 34% 7.8 mph SW12.6 kmh SW 18.0 mph29.0 kmh 29.74 in1007.1 mb 0.00 in0.0 mm 0.00 in0.0 mm 0.00 in0.0 mm
12:25 AM 35.2°F1.8°C 9.7°F-12.4°C 34% 4.9 mph SW7.9 kmh SW 14.0 mph22.5 kmh 29.75 in1007.5 mb 0.00 in0.0 mm 0.00 in0.0 mm 0.00 in0.0 mm
12:20 AM 34.6°F1.4°C 9.1°F-12.7°C 34% 5.1 mph WSW8.2 kmh WSW 13.0 mph20.9 kmh 29.75 in1007.5 mb 0.00 in0.0 mm 0.00 in0.0 mm 0.00 in0.0 mm
12:15 AM 34.2°F1.2°C 8.8°F-12.9°C 34% 3.0 mph NW4.8 kmh NW 9.0 mph14.5 kmh 29.75 in1007.5 mb 0.00 in0.0 mm 0.00 in0.0 mm 0.00 in0.0 mm
12:10 AM 34.4°F1.3°C 9.0°F-12.8°C 34% 2.7 mph W4.3 kmh W 7.0 mph11.3 kmh 29.76 in1007.8 mb 0.00 in0.0 mm 0.00 in0.0 mm 0.00 in0.0 mm
12:05 AM 34.4°F1.3°C 9.0°F-12.8°C 34% 2.5 mph SE4.0 kmh SE 6.0 mph9.7 kmh 29.77 in1008.1 mb 0.00 in0.0 mm 0.00 in0.0 mm 0.00 in0.0 mm
12:00 AM 34.5°F1.4°C 9.1°F-12.7°C 34% 1.4 mph SSE2.3 kmh SSE 9.0 mph14.5 kmh 29.77 in1008.1 mb 0.00 in0.0 mm 0.00 in0.0 mm 0.00 in0.0 mm